createdAt,value
2023-02-07T00:00:52.814Z,-4.73
2023-02-07T00:03:24.674Z,-4.77
2023-02-07T00:05:56.288Z,-4.78
2023-02-07T00:08:31.121Z,-4.76
2023-02-07T00:11:02.922Z,-4.78
2023-02-07T00:13:34.822Z,-4.79
2023-02-07T00:16:06.324Z,-4.81
2023-02-07T00:18:38.332Z,-4.80
2023-02-07T00:21:09.826Z,-4.79
2023-02-07T00:23:42.086Z,-4.79
2023-02-07T00:26:13.667Z,-4.80
2023-02-07T00:28:45.801Z,-4.86
2023-02-07T00:31:17.528Z,-4.89
2023-02-07T00:33:49.212Z,-4.94
2023-02-07T00:36:20.746Z,-5.00
2023-02-07T00:38:52.252Z,-5.05
2023-02-07T00:41:23.850Z,-5.09
2023-02-07T00:43:55.812Z,-5.06
2023-02-07T00:46:27.402Z,-5.08
2023-02-07T00:48:59.454Z,-5.08
2023-02-07T00:51:30.934Z,-5.08
2023-02-07T00:54:02.668Z,-5.09
2023-02-07T00:56:34.148Z,-5.11
2023-02-07T00:59:05.921Z,-5.12
2023-02-07T01:01:37.430Z,-5.11
2023-02-07T01:04:08.998Z,-5.11
2023-02-07T01:06:40.484Z,-5.13
2023-02-07T01:09:12.503Z,-5.14
2023-02-07T01:11:44.074Z,-5.15
2023-02-07T01:14:15.941Z,-5.16
2023-02-07T01:16:47.504Z,-5.19
2023-02-07T01:19:19.560Z,-5.22
2023-02-07T01:21:51.026Z,-5.25
2023-02-07T01:24:22.774Z,-5.27
2023-02-07T01:26:54.430Z,-5.31
2023-02-07T01:29:26.250Z,-5.31
2023-02-07T01:31:57.774Z,-5.33
2023-02-07T01:34:29.630Z,-5.34
2023-02-07T01:37:01.113Z,-5.35
2023-02-07T01:39:32.820Z,-5.35
2023-02-07T01:42:04.360Z,-5.39
2023-02-07T01:44:36.328Z,-5.42
2023-02-07T01:47:07.840Z,-5.43
2023-02-07T01:49:39.685Z,-5.45
2023-02-07T01:52:11.211Z,-5.46
2023-02-07T01:54:43.298Z,-5.48
2023-02-07T01:57:14.790Z,-5.49
2023-02-07T01:59:46.571Z,-5.54
2023-02-07T02:02:18.167Z,-5.54
2023-02-07T02:04:50.093Z,-5.56
2023-02-07T02:07:21.569Z,-5.57
2023-02-07T02:09:53.813Z,-5.61
2023-02-07T02:12:25.358Z,-5.67
2023-02-07T02:14:57.220Z,-5.69
2023-02-07T02:17:28.898Z,-5.73
2023-02-07T02:20:00.743Z,-5.73
2023-02-07T02:22:32.241Z,-5.73
2023-02-07T02:25:04.038Z,-5.73
2023-02-07T02:27:35.540Z,-5.75
2023-02-07T02:30:07.392Z,-5.76
2023-02-07T02:32:38.892Z,-5.81
2023-02-07T02:35:10.584Z,-5.86
2023-02-07T02:37:42.109Z,-5.86
2023-02-07T02:40:13.992Z,-5.87
2023-02-07T02:42:45.469Z,-5.86
2023-02-07T02:45:17.279Z,-5.85
2023-02-07T02:47:48.842Z,-5.87
2023-02-07T02:50:20.756Z,-5.85
2023-02-07T02:52:52.289Z,-5.84
2023-02-07T02:55:24.050Z,-5.91
2023-02-07T02:57:55.539Z,-5.95
2023-02-07T03:00:27.346Z,-5.97
2023-02-07T03:02:59.979Z,-5.99
2023-02-07T03:05:31.895Z,-6.70
2023-02-07T03:08:03.550Z,-6.02
2023-02-07T03:10:35.595Z,-5.99
2023-02-07T03:13:07.113Z,-6.00
2023-02-07T03:15:39.243Z,-6.06
2023-02-07T03:18:10.878Z,-6.10
2023-02-07T03:20:42.727Z,-6.11
2023-02-07T03:23:14.290Z,-6.16
2023-02-07T03:25:46.183Z,-6.19
2023-02-07T03:28:18.176Z,-6.18
2023-02-07T03:30:50.417Z,-6.24
2023-02-07T03:33:22.224Z,-6.27
2023-02-07T03:35:53.750Z,-6.23
2023-02-07T03:38:25.564Z,-6.19
2023-02-07T03:40:57.100Z,-6.16
2023-02-07T03:43:28.967Z,-6.17
2023-02-07T03:46:00.420Z,-6.15
2023-02-07T03:48:32.289Z,-6.17
2023-02-07T03:51:03.895Z,-6.19
2023-02-07T03:53:35.745Z,-6.21
2023-02-07T03:56:07.279Z,-6.23
2023-02-07T03:58:39.015Z,-6.25
2023-02-07T04:01:10.713Z,-6.27
2023-02-07T04:03:42.618Z,-6.27
2023-02-07T04:06:14.318Z,-6.27
2023-02-07T04:08:46.147Z,-6.28
2023-02-07T04:11:17.659Z,-6.32
2023-02-07T04:13:49.448Z,-6.34
2023-02-07T04:16:20.972Z,-6.36
2023-02-07T04:18:52.572Z,-6.39
2023-02-07T04:21:24.117Z,-6.40
2023-02-07T04:23:55.900Z,-6.40
2023-02-07T04:26:27.373Z,-6.43
2023-02-07T04:28:59.219Z,-6.45
2023-02-07T04:31:30.803Z,-6.47
2023-02-07T04:34:02.362Z,-6.49
2023-02-07T04:36:33.890Z,-6.47
2023-02-07T04:39:05.689Z,-6.48
2023-02-07T04:41:37.184Z,-6.50
2023-02-07T04:44:09.003Z,-6.48
2023-02-07T04:46:40.491Z,-6.51
2023-02-07T04:49:12.406Z,-6.50
2023-02-07T04:51:43.919Z,-6.52
2023-02-07T04:54:15.662Z,-6.57
2023-02-07T04:56:47.228Z,-6.59
2023-02-07T04:59:19.075Z,-6.65
2023-02-07T05:01:50.575Z,-6.66
2023-02-07T05:04:22.355Z,-6.66
2023-02-07T05:06:53.996Z,-6.66
2023-02-07T05:09:25.825Z,-6.66
2023-02-07T05:11:57.331Z,-6.67
2023-02-07T05:14:29.627Z,-6.71
2023-02-07T05:17:01.159Z,-6.71
2023-02-07T05:19:34.168Z,-6.71
2023-02-07T05:22:05.683Z,-6.71
2023-02-07T05:24:37.545Z,-6.76
2023-02-07T05:27:09.110Z,-6.79
2023-02-07T05:29:40.895Z,-6.79
2023-02-07T05:32:31.153Z,-6.80
2023-02-07T05:35:02.691Z,-6.82
2023-02-07T05:37:34.839Z,-6.82
2023-02-07T05:40:06.681Z,-6.86
2023-02-07T05:42:38.201Z,-6.91
2023-02-07T05:45:10.147Z,-6.96
2023-02-07T05:47:41.623Z,-7.00
2023-02-07T05:50:13.581Z,-7.03
2023-02-07T05:52:45.080Z,-7.08
2023-02-07T05:55:16.814Z,-7.84
2023-02-07T05:57:48.472Z,-7.10
2023-02-07T06:00:20.781Z,-7.10
2023-02-07T06:02:52.314Z,-7.09
2023-02-07T06:05:25.085Z,-7.12
2023-02-07T06:07:56.767Z,-7.19
2023-02-07T06:10:28.572Z,-7.22
2023-02-07T06:13:00.112Z,-7.23
2023-02-07T06:15:32.262Z,-7.23
2023-02-07T06:18:03.837Z,-7.24
2023-02-07T06:20:35.696Z,-7.25
2023-02-07T06:23:07.181Z,-7.22
2023-02-07T06:25:39.325Z,-7.21
2023-02-07T06:28:11.065Z,-7.22
2023-02-07T06:30:43.044Z,-7.25
2023-02-07T06:33:14.636Z,-7.24
2023-02-07T06:35:49.697Z,-7.22
2023-02-07T06:38:21.329Z,-7.15
2023-02-07T06:40:53.201Z,-7.12
2023-02-07T06:43:24.736Z,-7.11
2023-02-07T06:45:56.590Z,-7.10
2023-02-07T06:48:28.152Z,-7.10
2023-02-07T06:50:59.894Z,-7.11
2023-02-07T06:53:31.480Z,-7.12
2023-02-07T06:56:03.561Z,-7.10
2023-02-07T06:58:35.412Z,-7.10
2023-02-07T07:01:07.231Z,-7.09
2023-02-07T07:03:38.936Z,-7.08
2023-02-07T07:06:10.598Z,-7.05
2023-02-07T07:08:42.126Z,-6.99
2023-02-07T07:11:14.038Z,-6.96
2023-02-07T07:13:45.658Z,-6.89
2023-02-07T07:16:17.442Z,-6.76
2023-02-07T07:18:49.036Z,-6.72
2023-02-07T07:21:20.898Z,-6.69
2023-02-07T07:23:52.376Z,-6.68
2023-02-07T07:26:24.328Z,-6.64
2023-02-07T07:28:58.313Z,-6.59
2023-02-07T07:31:29.994Z,-6.50
2023-02-07T07:34:01.628Z,-6.41
2023-02-07T07:36:33.630Z,-6.39
2023-02-07T07:39:05.184Z,-6.31
2023-02-07T07:41:37.324Z,-6.26
2023-02-07T07:44:08.866Z,-6.12
2023-02-07T07:46:40.747Z,-5.96
2023-02-07T07:49:12.245Z,-5.88
2023-02-07T07:51:44.085Z,-5.72
2023-02-07T07:54:15.677Z,-5.40
2023-02-07T07:56:47.506Z,-5.25
2023-02-07T07:59:23.772Z,-5.07
2023-02-07T08:01:55.992Z,-4.90
2023-02-07T08:04:27.492Z,-4.88
2023-02-07T08:07:00.716Z,-4.59
2023-02-07T08:09:32.215Z,-4.55
2023-02-07T08:12:04.025Z,-4.38
2023-02-07T08:14:35.975Z,-4.36
2023-02-07T08:17:07.505Z,-4.24
2023-02-07T08:19:39.319Z,-4.16
2023-02-07T08:22:10.848Z,-4.10
2023-02-07T08:24:42.505Z,-3.86
2023-02-07T08:27:13.976Z,-3.88
2023-02-07T08:29:46.521Z,-3.61
2023-02-07T08:32:18.000Z,-3.38
2023-02-07T08:34:50.311Z,-3.47
2023-02-07T08:37:22.642Z,-3.46
2023-02-07T08:39:54.565Z,-3.30
2023-02-07T08:42:26.104Z,-3.25
2023-02-07T08:44:57.945Z,-3.15
2023-02-07T08:47:29.451Z,-3.21
2023-02-07T08:50:01.205Z,-3.08
2023-02-07T08:52:35.862Z,-3.04
2023-02-07T08:55:07.706Z,-2.98
2023-02-07T08:57:39.200Z,-2.91
2023-02-07T09:00:11.201Z,-2.86
2023-02-07T09:02:43.541Z,-2.87
2023-02-07T09:05:15.362Z,-2.81
2023-02-07T09:07:46.843Z,-2.56
2023-02-07T09:10:18.373Z,-2.52
2023-02-07T09:12:49.848Z,-2.36
2023-02-07T09:15:21.836Z,-2.23
2023-02-07T09:17:53.389Z,-2.02
2023-02-07T09:20:25.310Z,-1.52
2023-02-07T09:23:15.659Z,-1.53
2023-02-07T09:25:47.670Z,-1.28
2023-02-07T09:28:19.221Z,-1.16
2023-02-07T09:30:51.835Z,-0.80
2023-02-07T09:33:23.770Z,-1.07
2023-02-07T09:35:55.596Z,-0.13
2023-02-07T09:38:27.136Z,0.67
2023-02-07T09:40:59.653Z,0.85
2023-02-07T09:43:36.531Z,0.71
2023-02-07T09:46:11.090Z,1.13
2023-02-07T09:48:42.576Z,1.47
2023-02-07T09:51:14.772Z,1.35
2023-02-07T09:53:46.324Z,1.91
2023-02-07T09:56:19.592Z,1.97
2023-02-07T09:58:51.075Z,2.05
2023-02-07T10:01:22.872Z,1.55
2023-02-07T10:03:54.372Z,1.79
2023-02-07T10:06:27.132Z,2.28
2023-02-07T10:08:59.443Z,1.78
2023-02-07T10:11:31.446Z,1.74
2023-02-07T10:14:03.054Z,2.60
2023-02-07T10:16:34.879Z,3.26
2023-02-07T10:19:09.024Z,3.58
2023-02-07T10:21:40.519Z,4.00
2023-02-07T10:24:12.042Z,3.63
2023-02-07T10:26:43.987Z,3.83
2023-02-07T10:29:15.596Z,3.23
2023-02-07T10:31:47.391Z,2.51
2023-02-07T10:34:18.945Z,2.57
2023-02-07T10:36:50.852Z,2.93
2023-02-07T10:39:22.438Z,3.20
2023-02-07T10:41:57.684Z,2.92
2023-02-07T10:44:29.582Z,3.34
2023-02-07T10:47:01.678Z,3.18
2023-02-07T10:49:33.257Z,3.72
2023-02-07T10:52:05.078Z,3.46
2023-02-07T10:54:36.578Z,3.26
2023-02-07T10:57:08.444Z,3.89
2023-02-07T10:59:45.458Z,3.48
2023-02-07T11:02:17.353Z,3.40
2023-02-07T11:04:48.852Z,3.64
2023-02-07T11:07:20.718Z,4.44
2023-02-07T11:09:52.238Z,4.47
2023-02-07T11:12:24.001Z,3.99
2023-02-07T11:14:55.514Z,3.40
2023-02-07T11:17:27.372Z,3.79
2023-02-07T11:19:58.938Z,3.62
2023-02-07T11:22:30.731Z,3.99
2023-02-07T11:25:02.246Z,4.35
2023-02-07T11:27:34.048Z,4.49
2023-02-07T11:30:05.522Z,4.41
2023-02-07T11:32:38.673Z,4.34
2023-02-07T11:35:10.147Z,4.59
2023-02-07T11:37:43.807Z,4.10
2023-02-07T11:40:15.952Z,4.23
2023-02-07T11:42:47.463Z,4.28
2023-02-07T11:45:18.938Z,4.62
2023-02-07T11:47:50.941Z,4.74
2023-02-07T11:50:22.414Z,4.57
2023-02-07T11:52:57.021Z,4.54
2023-02-07T11:55:28.534Z,4.91
2023-02-07T11:58:00.354Z,4.94
2023-02-07T12:00:31.833Z,4.20
2023-02-07T12:03:03.877Z,3.64
2023-02-07T12:05:35.380Z,3.20
2023-02-07T12:08:07.231Z,3.73
2023-02-07T12:10:38.814Z,4.15
2023-02-07T12:13:10.754Z,3.86
2023-02-07T12:15:43.639Z,3.60
2023-02-07T12:18:15.634Z,3.28
2023-02-07T12:20:47.184Z,3.29
2023-02-07T12:23:40.894Z,3.36
2023-02-07T12:26:10.697Z,3.12
2023-02-07T12:28:42.196Z,3.29
2023-02-07T12:31:14.108Z,3.26
2023-02-07T12:33:47.221Z,3.34
2023-02-07T12:36:19.056Z,3.47
2023-02-07T12:38:50.617Z,3.79
2023-02-07T12:41:22.758Z,3.63
2023-02-07T12:43:54.258Z,3.98
2023-02-07T12:46:26.229Z,4.02
2023-02-07T12:48:57.728Z,4.26
2023-02-07T12:51:30.030Z,3.41
2023-02-07T12:54:01.610Z,3.20
2023-02-07T12:56:33.496Z,3.68
2023-02-07T12:59:05.052Z,3.64
2023-02-07T13:01:36.869Z,3.27
2023-02-07T13:04:08.395Z,3.28
2023-02-07T13:06:40.251Z,3.31
2023-02-07T13:09:11.842Z,3.49
2023-02-07T13:11:43.787Z,3.52
2023-02-07T13:14:15.280Z,3.72
2023-02-07T13:16:47.137Z,3.50
2023-02-07T13:19:18.686Z,3.94
2023-02-07T13:21:50.522Z,3.97
2023-02-07T13:24:22.150Z,4.02
2023-02-07T13:26:53.825Z,4.13
2023-02-07T13:29:25.561Z,3.43
2023-02-07T13:31:57.409Z,3.25
2023-02-07T13:34:29.020Z,3.81
2023-02-07T13:37:11.570Z,3.88
2023-02-07T13:39:47.778Z,4.06
2023-02-07T13:42:19.708Z,4.12
2023-02-07T13:44:51.181Z,4.14
2023-02-07T13:47:23.123Z,3.82
2023-02-07T13:49:54.610Z,4.27
2023-02-07T13:52:26.123Z,4.14
2023-02-07T13:54:57.603Z,4.25
2023-02-07T13:57:48.830Z,4.27
2023-02-07T14:00:20.594Z,4.49
2023-02-07T14:02:52.431Z,4.17
2023-02-07T14:05:23.962Z,4.41
2023-02-07T14:07:56.129Z,4.25
2023-02-07T14:10:27.613Z,4.82
2023-02-07T14:13:00.006Z,4.86
2023-02-07T14:15:31.536Z,4.98
2023-02-07T14:18:03.178Z,5.22
2023-02-07T14:20:34.700Z,4.92
2023-02-07T14:23:06.190Z,5.14
2023-02-07T14:25:37.911Z,5.30
2023-02-07T14:28:09.940Z,4.45
2023-02-07T14:30:41.900Z,4.92
2023-02-07T14:33:14.048Z,3.51
2023-02-07T14:35:45.838Z,4.39
2023-02-07T14:38:17.671Z,4.69
2023-02-07T14:41:01.840Z,4.13
2023-02-07T14:43:40.158Z,4.16
2023-02-07T14:46:11.872Z,4.10
2023-02-07T14:48:43.799Z,3.89
2023-02-07T14:51:15.275Z,3.69
2023-02-07T14:53:47.118Z,3.70
2023-02-07T14:56:18.627Z,3.75
2023-02-07T14:58:50.223Z,3.62
2023-02-07T15:01:22.312Z,3.67
2023-02-07T15:03:56.975Z,3.34
2023-02-07T15:06:32.610Z,3.44
2023-02-07T15:09:04.324Z,3.00
2023-02-07T15:11:36.139Z,3.22
2023-02-07T15:14:07.604Z,3.29
2023-02-07T15:16:40.477Z,3.32
2023-02-07T15:19:11.956Z,3.11
2023-02-07T15:21:43.760Z,2.98
2023-02-07T15:24:15.258Z,3.10
2023-02-07T15:26:47.189Z,2.97
2023-02-07T15:29:19.471Z,2.83
2023-02-07T15:31:51.537Z,2.72
2023-02-07T15:34:23.244Z,2.47
2023-02-07T15:36:54.891Z,2.17
2023-02-07T15:39:26.449Z,1.92
2023-02-07T15:41:58.545Z,1.71
2023-02-07T15:44:30.078Z,1.72
2023-02-07T15:47:01.899Z,1.62
2023-02-07T15:49:33.519Z,1.56
2023-02-07T15:52:05.041Z,1.46
2023-02-07T15:54:36.533Z,1.29
2023-02-07T15:57:08.341Z,1.13
2023-02-07T15:59:39.983Z,0.96
2023-02-07T16:02:11.819Z,0.76
2023-02-07T16:04:43.320Z,0.70
2023-02-07T16:07:15.126Z,0.62
2023-02-07T16:09:46.613Z,0.54
2023-02-07T16:12:18.609Z,0.43
2023-02-07T16:14:50.150Z,0.37
2023-02-07T16:17:22.534Z,0.29
2023-02-07T16:19:54.068Z,0.18
2023-02-07T16:22:25.548Z,0.13
2023-02-07T16:24:57.037Z,0.05
2023-02-07T16:27:31.962Z,0.02
2023-02-07T16:30:03.897Z,-0.04
2023-02-07T16:32:36.160Z,-0.14
2023-02-07T16:35:07.636Z,-0.20
2023-02-07T16:37:39.433Z,-0.28
2023-02-07T16:40:10.925Z,-0.36
2023-02-07T16:42:42.861Z,-0.38
2023-02-07T16:45:14.346Z,-0.41
2023-02-07T16:47:46.162Z,-0.45
2023-02-07T16:50:20.872Z,-0.52
2023-02-07T16:52:52.790Z,-0.56
2023-02-07T16:55:24.462Z,-0.60
2023-02-07T16:57:56.264Z,-0.68
2023-02-07T17:00:27.833Z,-0.68
2023-02-07T17:02:59.636Z,-0.74
2023-02-07T17:05:31.201Z,-0.76
2023-02-07T17:08:03.003Z,-0.77
2023-02-07T17:10:34.504Z,-0.81
2023-02-07T17:13:06.128Z,-0.87
2023-02-07T17:15:37.663Z,-0.90
2023-02-07T17:18:09.218Z,-0.92
2023-02-07T17:20:41.200Z,-0.90
2023-02-07T17:23:13.001Z,-0.94
2023-02-07T17:25:44.592Z,-0.90
2023-02-07T17:28:16.138Z,-0.85
2023-02-07T17:30:47.664Z,-0.80
2023-02-07T17:33:19.207Z,-0.75
2023-02-07T17:35:50.693Z,-0.72
2023-02-07T17:38:22.395Z,-0.72
2023-02-07T17:40:54.441Z,-0.69
2023-02-07T17:43:26.329Z,-0.66
2023-02-07T17:45:57.846Z,-0.64
2023-02-07T17:48:30.645Z,-0.63
2023-02-07T17:51:02.173Z,-0.58
2023-02-07T17:53:34.036Z,-0.59
2023-02-07T17:56:05.602Z,-0.61
2023-02-07T17:58:38.329Z,-0.60
2023-02-07T18:01:09.830Z,-0.59
2023-02-07T18:03:41.591Z,-0.59
2023-02-07T18:06:13.112Z,-0.61
2023-02-07T18:08:44.935Z,-0.64
2023-02-07T18:11:16.455Z,-0.72
2023-02-07T18:13:48.013Z,-0.81
2023-02-07T18:16:19.480Z,-0.93
2023-02-07T18:18:51.002Z,-0.95
2023-02-07T18:21:22.542Z,-0.89
2023-02-07T18:23:54.228Z,-0.88
2023-02-07T18:26:25.747Z,-0.93
2023-02-07T18:28:57.570Z,-0.99
2023-02-07T18:31:29.152Z,-1.04
2023-02-07T18:34:01.042Z,-1.07
2023-02-07T18:36:40.010Z,-1.13
2023-02-07T18:39:12.241Z,-1.20
2023-02-07T18:41:43.771Z,-1.23
2023-02-07T18:44:15.571Z,-1.28
2023-02-07T18:46:47.315Z,-1.31
2023-02-07T18:49:19.129Z,-1.36
2023-02-07T18:51:50.643Z,-1.40
2023-02-07T18:54:22.481Z,-1.43
2023-02-07T18:56:54.033Z,-1.46
2023-02-07T18:59:25.634Z,-1.57
2023-02-07T19:01:57.129Z,-1.60
2023-02-07T19:04:28.987Z,-1.60
2023-02-07T19:07:00.567Z,-2.61
2023-02-07T19:09:32.164Z,-1.75
2023-02-07T19:12:03.702Z,-1.83
2023-02-07T19:14:35.673Z,-1.85
2023-02-07T19:17:07.218Z,-1.87
2023-02-07T19:19:38.750Z,-1.84
2023-02-07T19:22:10.319Z,-1.89
2023-02-07T19:24:42.141Z,-1.94
2023-02-07T19:27:13.712Z,-1.99
2023-02-07T19:29:45.374Z,-2.00
2023-02-07T19:32:16.904Z,-2.00
2023-02-07T19:34:49.942Z,-2.00
2023-02-07T19:37:22.449Z,-2.03
2023-02-07T19:39:56.391Z,-2.02
2023-02-07T19:42:28.051Z,-2.06
2023-02-07T19:44:59.546Z,-2.07
2023-02-07T19:47:31.151Z,-2.08
2023-02-07T19:50:02.848Z,-2.09
2023-02-07T19:52:34.334Z,-2.13
2023-02-07T19:55:06.136Z,-2.15
2023-02-07T19:57:37.661Z,-2.16
2023-02-07T20:00:09.240Z,-2.17
2023-02-07T20:02:41.078Z,-2.14
2023-02-07T20:05:12.800Z,-2.15
2023-02-07T20:07:44.321Z,-2.20
2023-02-07T20:10:16.154Z,-2.24
2023-02-07T20:12:48.523Z,-2.27
2023-02-07T20:15:20.016Z,-2.29
2023-02-07T20:17:53.359Z,-2.33
2023-02-07T20:20:25.595Z,-2.36
2023-02-07T20:22:57.571Z,-2.45
2023-02-07T20:25:33.446Z,-2.45
2023-02-07T20:28:05.517Z,-2.44
2023-02-07T20:30:37.524Z,-2.46
2023-02-07T20:33:09.671Z,-2.46
2023-02-07T20:35:41.184Z,-2.48
2023-02-07T20:38:12.717Z,-2.49
2023-02-07T20:40:44.240Z,-2.50
2023-02-07T20:43:16.069Z,-2.53
2023-02-07T20:45:47.556Z,-2.55
2023-02-07T20:48:19.304Z,-2.59
2023-02-07T20:50:50.795Z,-2.60
2023-02-07T20:53:22.608Z,-2.62
2023-02-07T20:55:54.097Z,-2.61
2023-02-07T20:58:25.761Z,-2.64
2023-02-07T21:00:57.298Z,-2.65
2023-02-07T21:03:29.125Z,-2.65
2023-02-07T21:06:00.668Z,-2.70
2023-02-07T21:08:32.522Z,-2.71
2023-02-07T21:11:04.347Z,-2.71
2023-02-07T21:13:35.900Z,-2.75
2023-02-07T21:16:07.405Z,-2.78
2023-02-07T21:18:38.914Z,-2.81
2023-02-07T21:21:10.413Z,-2.86
2023-02-07T21:23:42.870Z,-2.86
2023-02-07T21:26:14.575Z,-2.88
2023-02-07T21:28:46.375Z,-2.92
2023-02-07T21:31:17.889Z,-2.93
2023-02-07T21:33:50.255Z,-2.92
2023-02-07T21:36:21.723Z,-2.94
2023-02-07T21:38:53.262Z,-2.94
2023-02-07T21:41:24.759Z,-2.95
2023-02-07T21:43:56.694Z,-2.96
2023-02-07T21:46:28.241Z,-2.99
2023-02-07T21:49:01.852Z,-3.04
2023-02-07T21:51:33.344Z,-3.07
2023-02-07T21:54:05.475Z,-3.07
2023-02-07T21:56:36.955Z,-3.09
2023-02-07T21:59:08.895Z,-4.84
2023-02-07T22:01:40.472Z,-3.11
2023-02-07T22:04:12.280Z,-3.13
2023-02-07T22:06:44.193Z,-3.16
2023-02-07T22:09:16.162Z,-3.16
2023-02-07T22:11:47.659Z,-3.19
2023-02-07T22:14:19.731Z,-3.20
2023-02-07T22:16:52.169Z,-3.23
2023-02-07T22:19:24.285Z,-3.25
2023-02-07T22:21:55.803Z,-3.29
2023-02-07T22:24:29.537Z,-3.34
2023-02-07T22:27:01.019Z,-3.37
2023-02-07T22:29:33.045Z,-3.42
2023-02-07T22:32:04.570Z,-3.42
2023-02-07T22:34:36.382Z,-3.43
2023-02-07T22:37:07.921Z,-3.44
2023-02-07T22:39:39.753Z,-3.47
2023-02-07T22:42:11.226Z,-3.49
2023-02-07T22:44:43.097Z,-3.51
2023-02-07T22:47:14.578Z,-3.52
2023-02-07T22:49:46.392Z,-3.53
2023-02-07T22:52:17.886Z,-3.51
2023-02-07T22:54:49.713Z,-3.52
2023-02-07T22:57:21.252Z,-3.52
2023-02-07T22:59:53.128Z,-3.54
2023-02-07T23:02:24.644Z,-3.57
2023-02-07T23:04:56.330Z,-3.66
2023-02-07T23:07:27.900Z,-3.67
2023-02-07T23:09:59.762Z,-3.72
2023-02-07T23:12:31.868Z,-3.73
2023-02-07T23:15:03.369Z,-3.74
2023-02-07T23:17:34.896Z,-3.75
2023-02-07T23:20:06.404Z,-3.75
2023-02-07T23:22:37.923Z,-3.75
2023-02-07T23:25:11.456Z,-3.78
2023-02-07T23:27:42.942Z,-3.82
2023-02-07T23:30:14.760Z,-3.85
2023-02-07T23:32:46.251Z,-4.64
2023-02-07T23:35:18.027Z,-3.84
2023-02-07T23:37:49.515Z,-3.85
2023-02-07T23:40:21.012Z,-3.86
2023-02-07T23:42:52.590Z,-3.87
2023-02-07T23:45:24.688Z,-3.88
2023-02-07T23:47:56.350Z,-3.90
2023-02-07T23:50:29.221Z,-3.92
2023-02-07T23:53:00.699Z,-3.91
2023-02-07T23:55:32.504Z,-3.91
2023-02-07T23:58:03.972Z,-3.93
